sensor_id;sensor_type;location;lat;lon;timestamp;P1;durP1;ratioP1;P2;durP2;ratioP2
13439;SDS011;6792;57.698;11.946;2023-05-10T00:01:06;4.10;;;2.17;;
13439;SDS011;6792;57.698;11.946;2023-05-10T00:03:35;3.33;;;1.80;;
13439;SDS011;6792;57.698;11.946;2023-05-10T00:06:05;3.55;;;1.98;;
13439;SDS011;6792;57.698;11.946;2023-05-10T00:08:34;2.47;;;1.92;;
13439;SDS011;6792;57.698;11.946;2023-05-10T00:11:04;2.00;;;1.90;;
13439;SDS011;6792;57.698;11.946;2023-05-10T00:13:36;2.40;;;1.97;;
13439;SDS011;6792;57.698;11.946;2023-05-10T00:16:06;2.45;;;2.25;;
13439;SDS011;6792;57.698;11.946;2023-05-10T00:18:35;4.78;;;2.10;;
13439;SDS011;6792;57.698;11.946;2023-05-10T00:21:04;3.85;;;2.17;;
13439;SDS011;6792;57.698;11.946;2023-05-10T00:23:36;2.87;;;2.52;;
13439;SDS011;6792;57.698;11.946;2023-05-10T00:26:05;4.33;;;2.10;;
13439;SDS011;6792;57.698;11.946;2023-05-10T00:28:34;3.58;;;1.90;;
13439;SDS011;6792;57.698;11.946;2023-05-10T00:31:04;5.27;;;2.40;;
13439;SDS011;6792;57.698;11.946;2023-05-10T00:33:35;6.27;;;2.13;;
13439;SDS011;6792;57.698;11.946;2023-05-10T00:36:05;4.65;;;2.10;;
13439;SDS011;6792;57.698;11.946;2023-05-10T00:38:37;2.90;;;2.30;;
13439;SDS011;6792;57.698;11.946;2023-05-10T00:41:10;2.75;;;1.90;;
13439;SDS011;6792;57.698;11.946;2023-05-10T00:43:39;2.45;;;1.90;;
13439;SDS011;6792;57.698;11.946;2023-05-10T00:46:09;4.00;;;1.93;;
13439;SDS011;6792;57.698;11.946;2023-05-10T00:48:38;2.53;;;1.87;;
13439;SDS011;6792;57.698;11.946;2023-05-10T00:51:07;4.03;;;2.17;;
13439;SDS011;6792;57.698;11.946;2023-05-10T00:53:37;2.35;;;1.85;;
13439;SDS011;6792;57.698;11.946;2023-05-10T00:56:06;2.30;;;2.07;;
13439;SDS011;6792;57.698;11.946;2023-05-10T00:58:38;2.30;;;2.10;;
13439;SDS011;6792;57.698;11.946;2023-05-10T01:01:08;2.37;;;2.17;;
13439;SDS011;6792;57.698;11.946;2023-05-10T01:03:38;3.93;;;2.00;;
13439;SDS011;6792;57.698;11.946;2023-05-10T01:06:08;4.20;;;2.00;;
13439;SDS011;6792;57.698;11.946;2023-05-10T01:08:38;2.27;;;2.00;;
13439;SDS011;6792;57.698;11.946;2023-05-10T01:11:08;3.60;;;2.30;;
13439;SDS011;6792;57.698;11.946;2023-05-10T01:13:37;3.37;;;2.10;;
13439;SDS011;6792;57.698;11.946;2023-05-10T01:16:08;2.17;;;2.00;;
13439;SDS011;6792;57.698;11.946;2023-05-10T01:18:38;2.92;;;2.30;;
13439;SDS011;6792;57.698;11.946;2023-05-10T01:21:12;7.43;;;2.33;;
13439;SDS011;6792;57.698;11.946;2023-05-10T01:23:58;4.20;;;1.87;;
13439;SDS011;6792;57.698;11.946;2023-05-10T01:29:41;3.40;;;2.37;;
13439;SDS011;6792;57.698;11.946;2023-05-10T01:32:16;5.87;;;2.20;;
13439;SDS011;6792;57.698;11.946;2023-05-10T01:34:56;3.37;;;2.23;;
13439;SDS011;6792;57.698;11.946;2023-05-10T01:37:36;2.52;;;2.10;;
13439;SDS011;6792;57.698;11.946;2023-05-10T01:40:09;6.03;;;2.60;;
13439;SDS011;6792;57.698;11.946;2023-05-10T01:42:45;5.65;;;2.17;;
13439;SDS011;6792;57.698;11.946;2023-05-10T01:45:18;3.10;;;2.20;;
13439;SDS011;6792;57.698;11.946;2023-05-10T01:47:52;2.90;;;2.23;;
13439;SDS011;6792;57.698;11.946;2023-05-10T01:50:29;2.13;;;1.93;;
13439;SDS011;6792;57.698;11.946;2023-05-10T01:53:00;3.50;;;2.33;;
13439;SDS011;6792;57.698;11.946;2023-05-10T01:55:32;2.77;;;2.07;;
13439;SDS011;6792;57.698;11.946;2023-05-10T01:58:04;5.70;;;2.10;;
13439;SDS011;6792;57.698;11.946;2023-05-10T02:00:36;4.77;;;2.10;;
13439;SDS011;6792;57.698;11.946;2023-05-10T02:03:09;3.87;;;2.40;;
13439;SDS011;6792;57.698;11.946;2023-05-10T02:05:40;2.47;;;2.25;;
13439;SDS011;6792;57.698;11.946;2023-05-10T02:08:12;2.20;;;2.00;;
13439;SDS011;6792;57.698;11.946;2023-05-10T02:10:45;3.77;;;2.13;;
13439;SDS011;6792;57.698;11.946;2023-05-10T02:13:16;4.40;;;2.50;;
13439;SDS011;6792;57.698;11.946;2023-05-10T02:15:48;4.10;;;2.17;;
13439;SDS011;6792;57.698;11.946;2023-05-10T02:18:18;3.53;;;2.23;;
13439;SDS011;6792;57.698;11.946;2023-05-10T02:20:49;6.10;;;2.30;;
13439;SDS011;6792;57.698;11.946;2023-05-10T02:23:21;2.50;;;2.07;;
13439;SDS011;6792;57.698;11.946;2023-05-10T02:25:52;5.93;;;2.30;;
13439;SDS011;6792;57.698;11.946;2023-05-10T02:28:24;4.17;;;2.00;;
13439;SDS011;6792;57.698;11.946;2023-05-10T02:30:54;4.50;;;2.10;;
13439;SDS011;6792;57.698;11.946;2023-05-10T02:33:26;3.30;;;2.00;;
13439;SDS011;6792;57.698;11.946;2023-05-10T02:35:56;5.27;;;2.43;;
13439;SDS011;6792;57.698;11.946;2023-05-10T02:38:26;4.20;;;2.40;;
13439;SDS011;6792;57.698;11.946;2023-05-10T02:40:58;2.93;;;2.23;;
13439;SDS011;6792;57.698;11.946;2023-05-10T02:43:29;2.50;;;2.17;;
13439;SDS011;6792;57.698;11.946;2023-05-10T02:45:59;4.63;;;2.10;;
13439;SDS011;6792;57.698;11.946;2023-05-10T02:48:29;5.87;;;2.30;;
13439;SDS011;6792;57.698;11.946;2023-05-10T02:51:00;5.73;;;2.33;;
13439;SDS011;6792;57.698;11.946;2023-05-10T02:53:34;2.20;;;2.00;;
13439;SDS011;6792;57.698;11.946;2023-05-10T02:56:08;3.10;;;2.20;;
13439;SDS011;6792;57.698;11.946;2023-05-10T02:58:39;4.93;;;2.53;;
13439;SDS011;6792;57.698;11.946;2023-05-10T03:01:11;2.83;;;1.97;;
13439;SDS011;6792;57.698;11.946;2023-05-10T03:03:40;6.03;;;2.40;;
13439;SDS011;6792;57.698;11.946;2023-05-10T03:06:09;2.67;;;2.43;;
13439;SDS011;6792;57.698;11.946;2023-05-10T03:08:39;4.93;;;2.23;;
13439;SDS011;6792;57.698;11.946;2023-05-10T03:11:15;5.47;;;2.00;;
13439;SDS011;6792;57.698;11.946;2023-05-10T03:13:47;4.67;;;1.90;;
13439;SDS011;6792;57.698;11.946;2023-05-10T03:16:20;3.70;;;2.40;;
13439;SDS011;6792;57.698;11.946;2023-05-10T03:18:54;6.10;;;2.20;;
13439;SDS011;6792;57.698;11.946;2023-05-10T03:21:24;2.03;;;1.83;;
13439;SDS011;6792;57.698;11.946;2023-05-10T03:23:58;3.17;;;2.20;;
13439;SDS011;6792;57.698;11.946;2023-05-10T03:26:29;3.73;;;2.30;;
13439;SDS011;6792;57.698;11.946;2023-05-10T03:28:59;6.00;;;2.33;;
13439;SDS011;6792;57.698;11.946;2023-05-10T03:31:30;3.47;;;2.17;;
13439;SDS011;6792;57.698;11.946;2023-05-10T03:33:59;4.00;;;2.10;;
13439;SDS011;6792;57.698;11.946;2023-05-10T03:36:29;3.50;;;2.10;;
13439;SDS011;6792;57.698;11.946;2023-05-10T03:38:58;2.53;;;1.90;;
13439;SDS011;6792;57.698;11.946;2023-05-10T03:41:27;2.23;;;1.97;;
13439;SDS011;6792;57.698;11.946;2023-05-10T03:43:56;4.37;;;2.20;;
13439;SDS011;6792;57.698;11.946;2023-05-10T03:46:25;2.40;;;2.20;;
13439;SDS011;6792;57.698;11.946;2023-05-10T03:48:58;3.90;;;2.47;;
13439;SDS011;6792;57.698;11.946;2023-05-10T03:51:27;2.90;;;2.27;;
13439;SDS011;6792;57.698;11.946;2023-05-10T03:53:57;7.77;;;1.90;;
13439;SDS011;6792;57.698;11.946;2023-05-10T03:56:27;3.07;;;2.17;;
13439;SDS011;6792;57.698;11.946;2023-05-10T03:58:56;2.33;;;2.13;;
13439;SDS011;6792;57.698;11.946;2023-05-10T04:01:25;2.23;;;2.03;;
13439;SDS011;6792;57.698;11.946;2023-05-10T04:03:55;7.23;;;2.23;;
13439;SDS011;6792;57.698;11.946;2023-05-10T04:06:24;4.57;;;2.10;;
13439;SDS011;6792;57.698;11.946;2023-05-10T04:08:53;2.67;;;2.17;;
13439;SDS011;6792;57.698;11.946;2023-05-10T04:11:22;4.20;;;2.10;;
13439;SDS011;6792;57.698;11.946;2023-05-10T04:13:51;2.37;;;2.17;;
13439;SDS011;6792;57.698;11.946;2023-05-10T04:16:21;6.70;;;2.50;;
13439;SDS011;6792;57.698;11.946;2023-05-10T04:18:50;2.77;;;2.17;;
13439;SDS011;6792;57.698;11.946;2023-05-10T04:21:19;3.40;;;2.60;;
13439;SDS011;6792;57.698;11.946;2023-05-10T04:23:49;2.50;;;2.30;;
13439;SDS011;6792;57.698;11.946;2023-05-10T04:26:18;4.30;;;2.17;;
13439;SDS011;6792;57.698;11.946;2023-05-10T04:28:48;5.90;;;2.37;;
13439;SDS011;6792;57.698;11.946;2023-05-10T04:31:18;2.33;;;1.90;;
13439;SDS011;6792;57.698;11.946;2023-05-10T04:33:47;4.13;;;2.17;;
13439;SDS011;6792;57.698;11.946;2023-05-10T04:36:17;2.20;;;2.00;;
13439;SDS011;6792;57.698;11.946;2023-05-10T04:38:46;8.23;;;2.13;;
13439;SDS011;6792;57.698;11.946;2023-05-10T04:41:15;2.42;;;2.22;;
13439;SDS011;6792;57.698;11.946;2023-05-10T04:43:44;2.67;;;2.47;;
13439;SDS011;6792;57.698;11.946;2023-05-10T04:46:15;2.90;;;2.40;;
13439;SDS011;6792;57.698;11.946;2023-05-10T04:48:44;5.13;;;2.20;;
13439;SDS011;6792;57.698;11.946;2023-05-10T04:51:13;3.17;;;2.30;;
13439;SDS011;6792;57.698;11.946;2023-05-10T04:53:47;7.03;;;2.10;;
13439;SDS011;6792;57.698;11.946;2023-05-10T04:56:17;4.03;;;2.40;;
13439;SDS011;6792;57.698;11.946;2023-05-10T04:58:46;5.60;;;2.40;;
13439;SDS011;6792;57.698;11.946;2023-05-10T05:01:16;2.30;;;2.00;;
13439;SDS011;6792;57.698;11.946;2023-05-10T05:03:47;4.03;;;2.50;;
13439;SDS011;6792;57.698;11.946;2023-05-10T05:06:18;4.67;;;2.30;;
13439;SDS011;6792;57.698;11.946;2023-05-10T05:08:48;4.27;;;2.50;;
13439;SDS011;6792;57.698;11.946;2023-05-10T05:11:17;2.77;;;2.20;;
13439;SDS011;6792;57.698;11.946;2023-05-10T05:13:47;6.43;;;2.60;;
13439;SDS011;6792;57.698;11.946;2023-05-10T05:16:16;4.83;;;2.60;;
13439;SDS011;6792;57.698;11.946;2023-05-10T05:18:46;8.80;;;2.43;;
13439;SDS011;6792;57.698;11.946;2023-05-10T05:21:15;2.33;;;2.07;;
13439;SDS011;6792;57.698;11.946;2023-05-10T05:23:48;3.40;;;2.30;;
13439;SDS011;6792;57.698;11.946;2023-05-10T05:29:09;4.07;;;2.50;;
13439;SDS011;6792;57.698;11.946;2023-05-10T05:31:39;2.45;;;2.10;;
13439;SDS011;6792;57.698;11.946;2023-05-10T05:34:08;4.57;;;2.40;;
13439;SDS011;6792;57.698;11.946;2023-05-10T05:36:37;4.10;;;2.47;;
13439;SDS011;6792;57.698;11.946;2023-05-10T05:39:07;3.03;;;2.33;;
13439;SDS011;6792;57.698;11.946;2023-05-10T05:41:36;5.28;;;2.80;;
13439;SDS011;6792;57.698;11.946;2023-05-10T05:44:05;6.20;;;2.20;;
13439;SDS011;6792;57.698;11.946;2023-05-10T05:46:34;2.55;;;2.15;;
13439;SDS011;6792;57.698;11.946;2023-05-10T05:49:04;7.87;;;2.70;;
13439;SDS011;6792;57.698;11.946;2023-05-10T05:51:33;3.85;;;2.50;;
13439;SDS011;6792;57.698;11.946;2023-05-10T05:54:02;6.80;;;2.50;;
13439;SDS011;6792;57.698;11.946;2023-05-10T05:56:32;2.40;;;2.20;;
13439;SDS011;6792;57.698;11.946;2023-05-10T05:59:02;2.43;;;2.13;;
13439;SDS011;6792;57.698;11.946;2023-05-10T06:01:31;4.15;;;2.62;;
13439;SDS011;6792;57.698;11.946;2023-05-10T06:04:01;4.33;;;2.87;;
13439;SDS011;6792;57.698;11.946;2023-05-10T06:06:30;6.28;;;2.47;;
13439;SDS011;6792;57.698;11.946;2023-05-10T06:09:00;5.90;;;2.67;;
13439;SDS011;6792;57.698;11.946;2023-05-10T06:11:29;5.63;;;2.40;;
13439;SDS011;6792;57.698;11.946;2023-05-10T06:13:59;4.08;;;2.30;;
13439;SDS011;6792;57.698;11.946;2023-05-10T06:16:28;3.77;;;2.40;;
13439;SDS011;6792;57.698;11.946;2023-05-10T06:18:59;9.45;;;2.52;;
13439;SDS011;6792;57.698;11.946;2023-05-10T06:21:34;5.47;;;2.65;;
13439;SDS011;6792;57.698;11.946;2023-05-10T06:24:07;18.25;;;3.87;;
13439;SDS011;6792;57.698;11.946;2023-05-10T06:26:47;17.42;;;3.25;;
13439;SDS011;6792;57.698;11.946;2023-05-10T06:29:17;11.05;;;2.85;;
13439;SDS011;6792;57.698;11.946;2023-05-10T06:31:46;4.75;;;2.42;;
13439;SDS011;6792;57.698;11.946;2023-05-10T06:34:15;3.95;;;2.35;;
13439;SDS011;6792;57.698;11.946;2023-05-10T06:36:44;5.00;;;2.67;;
13439;SDS011;6792;57.698;11.946;2023-05-10T06:39:15;4.83;;;2.35;;
13439;SDS011;6792;57.698;11.946;2023-05-10T06:41:44;5.80;;;2.60;;
13439;SDS011;6792;57.698;11.946;2023-05-10T06:46:56;3.80;;;2.67;;
13439;SDS011;6792;57.698;11.946;2023-05-10T06:49:26;9.93;;;2.80;;
13439;SDS011;6792;57.698;11.946;2023-05-10T06:51:56;4.47;;;2.58;;
13439;SDS011;6792;57.698;11.946;2023-05-10T06:54:25;8.10;;;2.47;;
13439;SDS011;6792;57.698;11.946;2023-05-10T06:56:54;2.52;;;2.27;;
13439;SDS011;6792;57.698;11.946;2023-05-10T06:59:24;5.05;;;2.30;;
13439;SDS011;6792;57.698;11.946;2023-05-10T07:01:53;6.75;;;2.30;;
13439;SDS011;6792;57.698;11.946;2023-05-10T07:04:22;7.40;;;2.90;;
13439;SDS011;6792;57.698;11.946;2023-05-10T07:06:52;3.08;;;2.27;;
13439;SDS011;6792;57.698;11.946;2023-05-10T07:09:21;4.65;;;2.60;;
13439;SDS011;6792;57.698;11.946;2023-05-10T07:11:51;3.58;;;2.67;;
13439;SDS011;6792;57.698;11.946;2023-05-10T07:14:20;6.45;;;2.83;;
13439;SDS011;6792;57.698;11.946;2023-05-10T07:16:49;7.45;;;2.70;;
13439;SDS011;6792;57.698;11.946;2023-05-10T07:19:18;5.37;;;2.80;;
13439;SDS011;6792;57.698;11.946;2023-05-10T07:21:48;10.93;;;2.22;;
13439;SDS011;6792;57.698;11.946;2023-05-10T07:24:17;3.50;;;2.58;;
13439;SDS011;6792;57.698;11.946;2023-05-10T07:26:47;4.47;;;2.20;;
13439;SDS011;6792;57.698;11.946;2023-05-10T07:29:16;3.00;;;2.47;;
13439;SDS011;6792;57.698;11.946;2023-05-10T07:31:48;2.80;;;2.60;;
13439;SDS011;6792;57.698;11.946;2023-05-10T07:34:18;6.95;;;2.45;;
13439;SDS011;6792;57.698;11.946;2023-05-10T07:36:47;10.65;;;2.70;;
13439;SDS011;6792;57.698;11.946;2023-05-10T07:39:17;7.10;;;2.70;;
13439;SDS011;6792;57.698;11.946;2023-05-10T07:41:46;8.00;;;2.60;;
13439;SDS011;6792;57.698;11.946;2023-05-10T07:44:16;4.65;;;2.60;;
13439;SDS011;6792;57.698;11.946;2023-05-10T07:46:46;3.87;;;2.30;;
13439;SDS011;6792;57.698;11.946;2023-05-10T07:49:16;2.60;;;2.40;;
13439;SDS011;6792;57.698;11.946;2023-05-10T07:51:45;12.93;;;3.37;;
13439;SDS011;6792;57.698;11.946;2023-05-10T07:54:17;6.80;;;2.55;;
13439;SDS011;6792;57.698;11.946;2023-05-10T07:56:47;7.33;;;3.52;;
13439;SDS011;6792;57.698;11.946;2023-05-10T07:59:16;4.47;;;2.60;;
13439;SDS011;6792;57.698;11.946;2023-05-10T08:01:46;6.70;;;2.60;;
13439;SDS011;6792;57.698;11.946;2023-05-10T08:04:15;6.37;;;3.00;;
13439;SDS011;6792;57.698;11.946;2023-05-10T08:06:47;3.50;;;2.40;;
13439;SDS011;6792;57.698;11.946;2023-05-10T08:09:19;7.03;;;2.80;;
13439;SDS011;6792;57.698;11.946;2023-05-10T08:11:50;4.40;;;2.77;;
13439;SDS011;6792;57.698;11.946;2023-05-10T08:14:19;7.50;;;2.70;;
13439;SDS011;6792;57.698;11.946;2023-05-10T08:16:48;4.08;;;2.20;;
13439;SDS011;6792;57.698;11.946;2023-05-10T08:19:17;5.08;;;2.50;;
13439;SDS011;6792;57.698;11.946;2023-05-10T08:21:47;6.67;;;3.08;;
13439;SDS011;6792;57.698;11.946;2023-05-10T08:24:17;5.15;;;2.22;;
13439;SDS011;6792;57.698;11.946;2023-05-10T08:26:46;5.12;;;2.60;;
13439;SDS011;6792;57.698;11.946;2023-05-10T08:29:16;7.62;;;2.70;;
13439;SDS011;6792;57.698;11.946;2023-05-10T08:31:48;5.65;;;2.60;;
13439;SDS011;6792;57.698;11.946;2023-05-10T08:34:18;6.80;;;2.72;;
13439;SDS011;6792;57.698;11.946;2023-05-10T08:36:47;9.78;;;2.80;;
13439;SDS011;6792;57.698;11.946;2023-05-10T08:39:17;3.12;;;2.30;;
13439;SDS011;6792;57.698;11.946;2023-05-10T08:41:46;2.98;;;2.40;;
13439;SDS011;6792;57.698;11.946;2023-05-10T08:44:18;5.40;;;2.62;;
13439;SDS011;6792;57.698;11.946;2023-05-10T08:46:48;7.28;;;2.80;;
13439;SDS011;6792;57.698;11.946;2023-05-10T08:49:20;3.10;;;2.50;;
13439;SDS011;6792;57.698;11.946;2023-05-10T08:51:52;3.42;;;2.60;;
13439;SDS011;6792;57.698;11.946;2023-05-10T08:54:28;4.03;;;2.80;;
13439;SDS011;6792;57.698;11.946;2023-05-10T08:57:00;5.05;;;2.70;;
13439;SDS011;6792;57.698;11.946;2023-05-10T08:59:31;5.62;;;2.58;;
13439;SDS011;6792;57.698;11.946;2023-05-10T09:02:01;2.62;;;2.42;;
13439;SDS011;6792;57.698;11.946;2023-05-10T09:04:31;3.65;;;2.90;;
13439;SDS011;6792;57.698;11.946;2023-05-10T09:07:01;6.97;;;2.77;;
13439;SDS011;6792;57.698;11.946;2023-05-10T09:09:30;2.42;;;2.22;;
13439;SDS011;6792;57.698;11.946;2023-05-10T09:12:01;6.92;;;2.80;;
13439;SDS011;6792;57.698;11.946;2023-05-10T09:14:30;5.83;;;2.47;;
13439;SDS011;6792;57.698;11.946;2023-05-10T09:17:01;4.65;;;2.50;;
13439;SDS011;6792;57.698;11.946;2023-05-10T09:19:30;5.40;;;2.30;;
13439;SDS011;6792;57.698;11.946;2023-05-10T09:21:59;9.10;;;2.85;;
13439;SDS011;6792;57.698;11.946;2023-05-10T09:24:29;2.77;;;2.50;;
13439;SDS011;6792;57.698;11.946;2023-05-10T09:26:58;2.77;;;2.50;;
13439;SDS011;6792;57.698;11.946;2023-05-10T09:29:39;6.80;;;2.52;;
13439;SDS011;6792;57.698;11.946;2023-05-10T09:32:09;3.72;;;2.60;;
13439;SDS011;6792;57.698;11.946;2023-05-10T09:34:38;3.40;;;2.25;;
13439;SDS011;6792;57.698;11.946;2023-05-10T09:37:09;4.67;;;2.87;;
13439;SDS011;6792;57.698;11.946;2023-05-10T09:39:39;5.97;;;2.87;;
13439;SDS011;6792;57.698;11.946;2023-05-10T09:42:09;3.87;;;2.33;;
13439;SDS011;6792;57.698;11.946;2023-05-10T09:44:37;3.10;;;2.75;;
13439;SDS011;6792;57.698;11.946;2023-05-10T09:47:17;4.80;;;2.58;;
13439;SDS011;6792;57.698;11.946;2023-05-10T09:49:49;8.45;;;2.75;;
13439;SDS011;6792;57.698;11.946;2023-05-10T09:52:21;5.30;;;2.65;;
13439;SDS011;6792;57.698;11.946;2023-05-10T09:54:53;7.10;;;2.92;;
13439;SDS011;6792;57.698;11.946;2023-05-10T09:57:28;7.67;;;3.70;;
13439;SDS011;6792;57.698;11.946;2023-05-10T09:59:58;5.40;;;2.77;;
13439;SDS011;6792;57.698;11.946;2023-05-10T10:02:30;3.83;;;2.80;;
13439;SDS011;6792;57.698;11.946;2023-05-10T10:05:01;5.60;;;2.60;;
13439;SDS011;6792;57.698;11.946;2023-05-10T10:07:31;9.03;;;2.62;;
13439;SDS011;6792;57.698;11.946;2023-05-10T10:10:00;4.85;;;2.47;;
13439;SDS011;6792;57.698;11.946;2023-05-10T10:12:31;3.83;;;2.67;;
13439;SDS011;6792;57.698;11.946;2023-05-10T10:15:00;4.92;;;2.47;;
13439;SDS011;6792;57.698;11.946;2023-05-10T10:17:30;9.10;;;2.75;;
13439;SDS011;6792;57.698;11.946;2023-05-10T10:20:03;6.42;;;2.55;;
13439;SDS011;6792;57.698;11.946;2023-05-10T10:22:33;8.90;;;2.72;;
13439;SDS011;6792;57.698;11.946;2023-05-10T10:25:05;17.15;;;2.60;;
13439;SDS011;6792;57.698;11.946;2023-05-10T10:27:38;3.75;;;2.50;;
13439;SDS011;6792;57.698;11.946;2023-05-10T10:30:13;2.65;;;2.45;;
13439;SDS011;6792;57.698;11.946;2023-05-10T10:33:01;2.72;;;2.40;;
13439;SDS011;6792;57.698;11.946;2023-05-10T10:35:32;6.25;;;3.15;;
13439;SDS011;6792;57.698;11.946;2023-05-10T10:38:03;6.20;;;2.65;;
13439;SDS011;6792;57.698;11.946;2023-05-10T10:40:34;3.22;;;2.55;;
13439;SDS011;6792;57.698;11.946;2023-05-10T10:43:22;3.45;;;2.42;;
13439;SDS011;6792;57.698;11.946;2023-05-10T10:46:09;4.60;;;2.92;;
13439;SDS011;6792;57.698;11.946;2023-05-10T10:48:40;5.08;;;2.85;;
13439;SDS011;6792;57.698;11.946;2023-05-10T10:51:12;3.58;;;2.80;;
13439;SDS011;6792;57.698;11.946;2023-05-10T10:53:44;4.53;;;2.80;;
13439;SDS011;6792;57.698;11.946;2023-05-10T10:56:17;3.95;;;2.60;;
13439;SDS011;6792;57.698;11.946;2023-05-10T10:58:50;4.60;;;2.42;;
13439;SDS011;6792;57.698;11.946;2023-05-10T11:01:20;5.25;;;2.40;;
13439;SDS011;6792;57.698;11.946;2023-05-10T11:06:45;5.80;;;2.65;;
13439;SDS011;6792;57.698;11.946;2023-05-10T11:09:16;6.22;;;2.58;;
13439;SDS011;6792;57.698;11.946;2023-05-10T11:11:50;4.65;;;2.20;;
13439;SDS011;6792;57.698;11.946;2023-05-10T11:14:21;3.27;;;2.12;;
13439;SDS011;6792;57.698;11.946;2023-05-10T11:16:50;2.77;;;2.40;;
13439;SDS011;6792;57.698;11.946;2023-05-10T11:19:20;5.05;;;2.42;;
13439;SDS011;6792;57.698;11.946;2023-05-10T11:21:49;5.25;;;2.72;;
13439;SDS011;6792;57.698;11.946;2023-05-10T11:24:21;2.47;;;2.10;;
13439;SDS011;6792;57.698;11.946;2023-05-10T11:26:52;4.90;;;2.60;;
13439;SDS011;6792;57.698;11.946;2023-05-10T11:29:22;3.42;;;2.27;;
13439;SDS011;6792;57.698;11.946;2023-05-10T11:31:52;4.10;;;2.35;;
13439;SDS011;6792;57.698;11.946;2023-05-10T11:34:25;2.80;;;2.42;;
13439;SDS011;6792;57.698;11.946;2023-05-10T11:36:56;2.80;;;2.50;;
13439;SDS011;6792;57.698;11.946;2023-05-10T11:39:26;2.15;;;1.92;;
13439;SDS011;6792;57.698;11.946;2023-05-10T11:41:56;4.58;;;2.60;;
13439;SDS011;6792;57.698;11.946;2023-05-10T11:44:29;5.78;;;2.20;;
13439;SDS011;6792;57.698;11.946;2023-05-10T11:46:59;3.95;;;2.00;;
13439;SDS011;6792;57.698;11.946;2023-05-10T11:49:28;1.72;;;1.62;;
13439;SDS011;6792;57.698;11.946;2023-05-10T11:52:04;11.12;;;2.83;;
13439;SDS011;6792;57.698;11.946;2023-05-10T11:54:34;2.25;;;1.90;;
13439;SDS011;6792;57.698;11.946;2023-05-10T11:57:03;2.20;;;2.00;;
13439;SDS011;6792;57.698;11.946;2023-05-10T11:59:33;3.75;;;2.20;;
13439;SDS011;6792;57.698;11.946;2023-05-10T12:02:02;3.25;;;2.40;;
13439;SDS011;6792;57.698;11.946;2023-05-10T12:04:31;2.85;;;1.90;;
13439;SDS011;6792;57.698;11.946;2023-05-10T12:07:01;5.65;;;2.00;;
13439;SDS011;6792;57.698;11.946;2023-05-10T12:09:31;3.52;;;1.80;;
13439;SDS011;6792;57.698;11.946;2023-05-10T12:12:01;3.05;;;2.10;;
13439;SDS011;6792;57.698;11.946;2023-05-10T12:14:34;2.12;;;2.02;;
13439;SDS011;6792;57.698;11.946;2023-05-10T12:17:04;3.12;;;1.80;;
13439;SDS011;6792;57.698;11.946;2023-05-10T12:19:42;4.62;;;2.00;;
13439;SDS011;6792;57.698;11.946;2023-05-10T12:22:11;3.67;;;1.80;;
13439;SDS011;6792;57.698;11.946;2023-05-10T12:24:41;4.30;;;2.00;;
13439;SDS011;6792;57.698;11.946;2023-05-10T12:27:14;5.17;;;1.87;;
13439;SDS011;6792;57.698;11.946;2023-05-10T12:29:47;4.80;;;2.02;;
13439;SDS011;6792;57.698;11.946;2023-05-10T12:32:17;7.33;;;1.70;;
13439;SDS011;6792;57.698;11.946;2023-05-10T12:34:46;5.70;;;1.80;;
13439;SDS011;6792;57.698;11.946;2023-05-10T12:37:19;3.83;;;1.98;;
13439;SDS011;6792;57.698;11.946;2023-05-10T12:39:53;2.37;;;1.55;;
13439;SDS011;6792;57.698;11.946;2023-05-10T12:42:22;5.05;;;2.15;;
13439;SDS011;6792;57.698;11.946;2023-05-10T12:44:55;3.15;;;1.80;;
13439;SDS011;6792;57.698;11.946;2023-05-10T12:47:24;4.87;;;1.75;;
13439;SDS011;6792;57.698;11.946;2023-05-10T12:49:54;2.98;;;1.82;;
13439;SDS011;6792;57.698;11.946;2023-05-10T12:52:23;2.70;;;1.98;;
13439;SDS011;6792;57.698;11.946;2023-05-10T12:54:52;2.02;;;1.82;;
13439;SDS011;6792;57.698;11.946;2023-05-10T12:57:22;2.95;;;1.82;;
13439;SDS011;6792;57.698;11.946;2023-05-10T12:59:51;3.62;;;1.92;;
13439;SDS011;6792;57.698;11.946;2023-05-10T13:02:22;5.72;;;2.30;;
13439;SDS011;6792;57.698;11.946;2023-05-10T13:04:51;6.50;;;2.08;;
13439;SDS011;6792;57.698;11.946;2023-05-10T13:07:20;3.58;;;2.10;;
13439;SDS011;6792;57.698;11.946;2023-05-10T13:09:50;4.00;;;2.40;;
13439;SDS011;6792;57.698;11.946;2023-05-10T13:12:19;2.77;;;1.90;;
13439;SDS011;6792;57.698;11.946;2023-05-10T13:14:48;2.72;;;1.80;;
13439;SDS011;6792;57.698;11.946;2023-05-10T13:17:17;3.30;;;2.00;;
13439;SDS011;6792;57.698;11.946;2023-05-10T13:19:47;4.78;;;1.90;;
13439;SDS011;6792;57.698;11.946;2023-05-10T13:22:16;7.92;;;2.20;;
13439;SDS011;6792;57.698;11.946;2023-05-10T13:24:46;2.72;;;1.80;;
13439;SDS011;6792;57.698;11.946;2023-05-10T13:27:15;1.95;;;1.72;;
13439;SDS011;6792;57.698;11.946;2023-05-10T13:29:44;4.10;;;1.95;;
13439;SDS011;6792;57.698;11.946;2023-05-10T13:32:13;5.90;;;2.08;;
13439;SDS011;6792;57.698;11.946;2023-05-10T13:34:43;5.22;;;2.00;;
13439;SDS011;6792;57.698;11.946;2023-05-10T13:37:15;2.10;;;1.60;;
13439;SDS011;6792;57.698;11.946;2023-05-10T13:39:44;2.40;;;1.80;;
13439;SDS011;6792;57.698;11.946;2023-05-10T13:42:14;4.62;;;1.92;;
13439;SDS011;6792;57.698;11.946;2023-05-10T13:44:43;4.72;;;2.50;;
13439;SDS011;6792;57.698;11.946;2023-05-10T13:47:12;3.00;;;1.90;;
13439;SDS011;6792;57.698;11.946;2023-05-10T13:49:42;5.55;;;1.60;;
13439;SDS011;6792;57.698;11.946;2023-05-10T13:52:11;1.90;;;1.80;;
13439;SDS011;6792;57.698;11.946;2023-05-10T13:54:40;1.80;;;1.70;;
13439;SDS011;6792;57.698;11.946;2023-05-10T13:57:10;5.28;;;1.70;;
13439;SDS011;6792;57.698;11.946;2023-05-10T13:59:40;2.35;;;1.60;;
13439;SDS011;6792;57.698;11.946;2023-05-10T14:02:09;1.87;;;1.77;;
13439;SDS011;6792;57.698;11.946;2023-05-10T14:04:39;3.70;;;1.62;;
13439;SDS011;6792;57.698;11.946;2023-05-10T14:07:08;3.58;;;1.77;;
13439;SDS011;6792;57.698;11.946;2023-05-10T14:09:38;3.02;;;1.77;;
13439;SDS011;6792;57.698;11.946;2023-05-10T14:12:07;2.67;;;1.60;;
13439;SDS011;6792;57.698;11.946;2023-05-10T14:14:36;2.50;;;1.55;;
13439;SDS011;6792;57.698;11.946;2023-05-10T14:17:07;6.30;;;2.00;;
13439;SDS011;6792;57.698;11.946;2023-05-10T14:19:36;2.55;;;1.95;;
13439;SDS011;6792;57.698;11.946;2023-05-10T14:22:05;2.02;;;1.75;;
13439;SDS011;6792;57.698;11.946;2023-05-10T14:24:35;3.33;;;2.02;;
13439;SDS011;6792;57.698;11.946;2023-05-10T14:27:07;2.70;;;1.95;;
13439;SDS011;6792;57.698;11.946;2023-05-10T14:29:36;4.47;;;1.77;;
13439;SDS011;6792;57.698;11.946;2023-05-10T14:32:08;5.40;;;1.77;;
13439;SDS011;6792;57.698;11.946;2023-05-10T14:34:37;2.95;;;1.60;;
13439;SDS011;6792;57.698;11.946;2023-05-10T14:37:06;3.58;;;1.82;;
13439;SDS011;6792;57.698;11.946;2023-05-10T14:39:37;2.83;;;1.82;;
13439;SDS011;6792;57.698;11.946;2023-05-10T14:42:06;3.83;;;1.92;;
13439;SDS011;6792;57.698;11.946;2023-05-10T14:44:35;4.05;;;1.90;;
13439;SDS011;6792;57.698;11.946;2023-05-10T14:47:05;3.08;;;1.87;;
13439;SDS011;6792;57.698;11.946;2023-05-10T14:49:35;5.08;;;2.10;;
13439;SDS011;6792;57.698;11.946;2023-05-10T14:52:04;4.25;;;2.08;;
13439;SDS011;6792;57.698;11.946;2023-05-10T14:54:34;3.08;;;1.90;;
13439;SDS011;6792;57.698;11.946;2023-05-10T14:57:03;2.62;;;1.62;;
13439;SDS011;6792;57.698;11.946;2023-05-10T14:59:32;1.75;;;1.65;;
13439;SDS011;6792;57.698;11.946;2023-05-10T15:02:05;5.67;;;2.00;;
13439;SDS011;6792;57.698;11.946;2023-05-10T15:04:36;6.05;;;1.90;;
13439;SDS011;6792;57.698;11.946;2023-05-10T15:07:05;3.22;;;1.98;;
13439;SDS011;6792;57.698;11.946;2023-05-10T15:09:34;2.05;;;1.85;;
13439;SDS011;6792;57.698;11.946;2023-05-10T15:12:03;9.43;;;2.22;;
13439;SDS011;6792;57.698;11.946;2023-05-10T15:14:33;3.15;;;2.50;;
13439;SDS011;6792;57.698;11.946;2023-05-10T15:17:02;4.10;;;2.12;;
13439;SDS011;6792;57.698;11.946;2023-05-10T15:19:33;4.42;;;1.98;;